createdAt,value
2018-04-02T00:01:46.762Z,30.67
2018-04-02T00:04:15.615Z,28.47
2018-04-02T00:06:44.489Z,26.77
2018-04-02T00:09:13.495Z,28.27
2018-04-02T00:11:43.819Z,30.47
2018-04-02T00:14:12.717Z,26.80
2018-04-02T00:16:42.062Z,24.23
2018-04-02T00:19:10.907Z,28.97
2018-04-02T00:21:39.795Z,28.00
2018-04-02T00:24:09.290Z,31.90
2018-04-02T00:26:38.135Z,21.57
2018-04-02T00:29:07.070Z,27.17
2018-04-02T00:31:35.952Z,25.73
2018-04-02T00:34:04.858Z,24.73
2018-04-02T00:36:33.738Z,24.93
2018-04-02T00:39:03.349Z,24.97
2018-04-02T00:41:32.229Z,23.77
2018-04-02T00:44:01.444Z,23.37
2018-04-02T00:46:30.282Z,18.13
2018-04-02T00:48:59.663Z,23.00
2018-04-02T00:51:28.767Z,26.77
2018-04-02T00:53:57.658Z,25.53
2018-04-02T00:56:27.052Z,24.50
2018-04-02T00:58:55.940Z,31.53
2018-04-02T01:01:26.404Z,26.77
2018-04-02T01:03:55.261Z,30.73
2018-04-02T01:06:24.136Z,31.03
2018-04-02T01:08:52.985Z,30.30
2018-04-02T01:11:22.664Z,29.53
2018-04-02T01:13:51.545Z,32.33
2018-04-02T01:16:20.596Z,36.07
2018-04-02T01:18:49.792Z,37.03
2018-04-02T01:21:18.668Z,38.00
2018-04-02T01:23:47.512Z,40.10
2018-04-02T01:26:16.353Z,40.93
2018-04-02T01:28:45.229Z,37.27
2018-04-02T01:31:14.076Z,39.47
2018-04-02T01:33:42.965Z,36.47
2018-04-02T01:36:12.456Z,43.60
2018-04-02T01:38:41.312Z,39.80
2018-04-02T01:41:10.151Z,39.97
2018-04-02T01:43:39.059Z,39.80
2018-04-02T01:46:07.912Z,37.47
2018-04-02T01:48:37.054Z,42.83
2018-04-02T01:51:05.994Z,38.97
2018-04-02T01:53:34.880Z,33.83
2018-04-02T01:56:03.748Z,41.17
2018-04-02T01:58:32.610Z,41.07
2018-04-02T02:01:02.166Z,38.37
2018-04-02T02:03:31.021Z,39.87
2018-04-02T02:05:59.946Z,38.10
2018-04-02T02:08:29.004Z,38.23
2018-04-02T02:10:57.965Z,42.47
2018-04-02T02:13:26.872Z,42.37
2018-04-02T02:15:55.755Z,42.70
2018-04-02T02:18:24.613Z,36.17
2018-04-02T02:20:53.521Z,35.87
2018-04-02T02:23:23.279Z,43.60
2018-04-02T02:25:52.133Z,39.63
2018-04-02T02:28:21.063Z,34.40
2018-04-02T02:30:49.916Z,42.60
2018-04-02T02:33:18.783Z,44.23
2018-04-02T02:35:47.646Z,38.97
2018-04-02T02:38:16.555Z,39.70
2018-04-02T02:40:45.429Z,36.17
2018-04-02T02:43:14.309Z,37.10
2018-04-02T02:45:43.174Z,35.03
2018-04-02T02:48:12.602Z,36.13
2018-04-02T02:50:41.764Z,40.20
2018-04-02T02:53:10.621Z,37.67
2018-04-02T02:55:39.462Z,39.53
2018-04-02T02:58:08.407Z,33.77
2018-04-02T03:00:37.261Z,40.17
2018-04-02T03:03:06.144Z,37.13
2018-04-02T03:05:35.088Z,41.17
2018-04-02T03:08:04.086Z,40.67
2018-04-02T03:10:32.951Z,35.83
2018-04-02T03:13:02.112Z,40.93
2018-04-02T03:15:30.965Z,38.70
2018-04-02T03:17:59.824Z,41.33
2018-04-02T03:20:29.379Z,37.97
2018-04-02T03:22:58.218Z,38.63
2018-04-02T03:25:27.088Z,39.57
2018-04-02T03:27:55.971Z,40.40
2018-04-02T03:30:25.524Z,43.73
2018-04-02T03:32:54.373Z,42.53
2018-04-02T03:35:23.335Z,40.47
2018-04-02T03:37:52.193Z,40.97
2018-04-02T03:40:21.044Z,43.13
2018-04-02T03:42:50.419Z,37.47
2018-04-02T03:45:19.299Z,43.40
2018-04-02T03:47:48.145Z,39.93
2018-04-02T03:50:17.527Z,44.00
2018-04-02T03:52:46.369Z,43.67
2018-04-02T03:55:15.219Z,48.43
2018-04-02T03:57:44.084Z,40.43
2018-04-02T04:00:12.938Z,45.63
2018-04-02T04:02:42.696Z,42.77
2018-04-02T04:05:11.599Z,43.30
2018-04-02T04:07:40.472Z,42.40
2018-04-02T04:10:10.153Z,41.33
2018-04-02T04:12:38.999Z,41.17
2018-04-02T04:15:07.888Z,42.80
2018-04-02T04:17:36.773Z,43.07
2018-04-02T04:20:06.223Z,48.97
2018-04-02T04:22:35.088Z,43.27
2018-04-02T04:25:04.003Z,40.60
2018-04-02T04:27:32.858Z,44.43
2018-04-02T04:30:01.718Z,40.80
2018-04-02T04:32:30.599Z,43.40
2018-04-02T04:34:59.457Z,47.30
2018-04-02T04:37:28.304Z,42.27
2018-04-02T04:39:57.718Z,44.00
2018-04-02T04:42:26.551Z,45.17
2018-04-02T04:44:55.421Z,45.60
2018-04-02T04:47:24.976Z,42.67
2018-04-02T04:49:53.821Z,48.30
2018-04-02T04:52:22.684Z,47.17
2018-04-02T04:54:51.546Z,45.63
2018-04-02T04:57:20.384Z,44.83
2018-04-02T04:59:49.223Z,43.83
2018-04-02T05:02:18.098Z,45.27
2018-04-02T05:04:46.961Z,44.50
2018-04-02T05:07:15.811Z,50.63
2018-04-02T05:09:44.676Z,46.20
2018-04-02T05:12:13.527Z,42.50
2018-04-02T05:14:43.272Z,46.43
2018-04-02T05:17:12.128Z,45.23
2018-04-02T05:19:41.022Z,46.60
2018-04-02T05:22:11.031Z,43.20
2018-04-02T05:24:39.926Z,43.80
2018-04-02T05:27:09.502Z,49.03
2018-04-02T05:29:38.348Z,49.70
2018-04-02T05:32:07.484Z,44.73
2018-04-02T05:34:36.354Z,45.37
2018-04-02T05:37:05.224Z,49.80
2018-04-02T05:39:34.100Z,45.73
2018-04-02T05:42:03.656Z,42.73
2018-04-02T05:44:32.535Z,44.40
2018-04-02T05:47:01.425Z,48.47
2018-04-02T05:49:30.270Z,48.97
2018-04-02T05:51:59.519Z,47.30
2018-04-02T05:54:28.402Z,44.80
2018-04-02T05:56:57.348Z,43.53
2018-04-02T05:59:26.212Z,46.23
2018-04-02T06:01:55.080Z,45.53
2018-04-02T06:04:23.962Z,48.07
2018-04-02T06:06:53.633Z,45.00
2018-04-02T06:09:23.264Z,45.20
2018-04-02T06:11:52.110Z,43.87
2018-04-02T06:14:20.971Z,43.17
2018-04-02T06:16:49.857Z,45.30
2018-04-02T06:19:20.618Z,41.47
2018-04-02T06:21:50.477Z,43.90
2018-04-02T06:24:19.318Z,43.23
2018-04-02T06:26:48.480Z,43.20
2018-04-02T06:29:17.351Z,43.83
2018-04-02T06:31:46.438Z,38.73
2018-04-02T06:34:15.548Z,37.83
2018-04-02T06:36:44.408Z,40.87
2018-04-02T06:39:13.372Z,39.57
2018-04-02T06:41:42.257Z,38.47
2018-04-02T06:44:11.103Z,36.97
2018-04-02T06:46:40.038Z,41.50
2018-04-02T06:49:09.463Z,39.07
2018-04-02T06:51:38.303Z,35.90
2018-04-02T06:54:07.151Z,38.53
2018-04-02T06:56:36.091Z,33.73
2018-04-02T06:59:04.972Z,36.27
2018-04-02T07:01:33.847Z,34.47
2018-04-02T07:04:02.734Z,34.50
2018-04-02T07:06:31.603Z,33.97
2018-04-02T07:09:00.455Z,30.60
2018-04-02T07:11:30.171Z,32.00
2018-04-02T07:13:59.053Z,32.27
2018-04-02T07:16:27.922Z,30.53
2018-04-02T07:18:56.779Z,31.00
2018-04-02T07:21:25.647Z,31.70
2018-04-02T07:23:54.516Z,31.07
2018-04-02T07:26:23.390Z,28.70
2018-04-02T07:28:52.239Z,28.20
2018-04-02T07:31:21.102Z,28.00
2018-04-02T07:33:50.028Z,29.93
2018-04-02T07:36:18.948Z,25.13
2018-04-02T07:38:47.819Z,29.90
2018-04-02T07:41:16.698Z,27.03
2018-04-02T07:43:46.084Z,26.57
2018-04-02T07:46:14.932Z,25.60
2018-04-02T07:48:43.813Z,24.17
2018-04-02T07:51:12.660Z,24.97
2018-04-02T07:53:42.349Z,24.97
2018-04-02T07:56:11.224Z,25.47
2018-04-02T07:58:40.110Z,25.27
2018-04-02T08:01:09.511Z,25.77
2018-04-02T08:03:38.420Z,27.50
2018-04-02T08:06:07.279Z,31.73
2018-04-02T08:08:36.214Z,27.43
2018-04-02T08:11:05.284Z,23.03
2018-04-02T08:13:34.188Z,25.43
2018-04-02T08:16:03.040Z,24.97
2018-04-02T08:18:31.950Z,26.97
2018-04-02T08:21:00.836Z,24.97
2018-04-02T08:23:29.698Z,23.63
2018-04-02T08:25:58.598Z,21.77
2018-04-02T08:28:27.456Z,21.57
2018-04-02T08:30:56.293Z,25.00
2018-04-02T08:33:25.220Z,20.83
2018-04-02T08:35:54.076Z,21.77
2018-04-02T08:38:22.964Z,22.67
2018-04-02T08:40:52.088Z,23.83
2018-04-02T08:43:20.977Z,18.93
2018-04-02T08:45:49.835Z,20.23
2018-04-02T08:48:18.736Z,20.97
2018-04-02T08:50:47.598Z,18.43
2018-04-02T08:53:16.473Z,20.63
2018-04-02T08:55:45.353Z,20.60
2018-04-02T08:58:14.731Z,19.13
2018-04-02T09:00:43.617Z,17.90
2018-04-02T09:03:13.409Z,19.77
2018-04-02T09:05:43.233Z,17.27
2018-04-02T09:08:12.105Z,16.93
2018-04-02T09:10:40.993Z,16.27
2018-04-02T09:13:09.906Z,16.00
2018-04-02T09:15:38.875Z,18.03
2018-04-02T09:18:08.602Z,18.27
2018-04-02T09:20:37.991Z,16.57
2018-04-02T09:23:06.883Z,13.97
2018-04-02T09:25:35.912Z,14.67
2018-04-02T09:28:04.798Z,14.00
2018-04-02T09:30:33.647Z,13.83
2018-04-02T09:33:03.275Z,13.67
2018-04-02T09:35:32.134Z,11.67
2018-04-02T09:38:01.014Z,12.43
2018-04-02T09:40:29.942Z,12.60
2018-04-02T09:42:58.785Z,11.53
2018-04-02T09:45:27.643Z,11.33
2018-04-02T09:47:56.525Z,11.53
2018-04-02T09:50:25.375Z,9.87
2018-04-02T09:52:54.236Z,10.80
2018-04-02T09:55:23.231Z,10.83
2018-04-02T09:57:52.087Z,11.47
2018-04-02T10:00:26.731Z,9.33
2018-04-02T10:02:55.616Z,11.03
2018-04-02T10:05:24.587Z,8.53
2018-04-02T10:07:53.525Z,7.50
2018-04-02T10:10:22.477Z,8.27
2018-04-02T10:12:51.363Z,8.77
2018-04-02T10:15:20.253Z,8.33
2018-04-02T10:17:49.214Z,8.30
2018-04-02T10:20:18.244Z,7.50
2018-04-02T10:22:47.119Z,8.40
2018-04-02T10:25:16.078Z,8.63
2018-04-02T10:27:45.698Z,5.60
2018-04-02T10:30:14.560Z,6.13
2018-04-02T10:32:44.084Z,7.57
2018-04-02T10:35:12.933Z,5.67
2018-04-02T10:37:42.808Z,5.70
2018-04-02T10:40:11.662Z,7.87
2018-04-02T10:42:41.450Z,8.43
2018-04-02T10:45:10.317Z,6.17
2018-04-02T10:47:39.184Z,5.77
2018-04-02T10:50:08.568Z,7.67
2018-04-02T10:52:38.094Z,5.30
2018-04-02T10:55:08.239Z,6.13
2018-04-02T10:57:37.100Z,5.20
2018-04-02T11:00:05.956Z,5.03
2018-04-02T11:02:34.796Z,4.63
2018-04-02T11:05:03.692Z,5.00
2018-04-02T11:07:32.555Z,5.70
2018-04-02T11:10:01.412Z,6.30
2018-04-02T11:12:30.343Z,7.13
2018-04-02T11:14:59.234Z,5.30
2018-04-02T11:17:28.439Z,4.60
2018-04-02T11:19:57.428Z,4.73
2018-04-02T11:22:26.296Z,4.23
2018-04-02T11:24:55.922Z,4.17
2018-04-02T11:27:24.778Z,6.67
2018-04-02T11:29:53.625Z,5.53
2018-04-02T11:32:22.469Z,6.57
2018-04-02T11:34:51.328Z,4.13
2018-04-02T11:37:20.194Z,4.50
2018-04-02T11:39:49.060Z,4.87
2018-04-02T11:42:17.933Z,4.20
2018-04-02T11:44:46.776Z,6.20
2018-04-02T11:47:15.626Z,5.60
2018-04-02T11:49:44.488Z,3.97
2018-04-02T11:52:13.334Z,3.37
2018-04-02T11:54:42.168Z,6.67
2018-04-02T11:57:11.080Z,2.80
2018-04-02T11:59:39.942Z,4.63
2018-04-02T12:02:09.124Z,3.57
2018-04-02T12:04:38.000Z,3.53
2018-04-02T12:07:06.914Z,4.97
2018-04-02T12:09:35.806Z,3.43
2018-04-02T12:12:05.009Z,3.17
2018-04-02T12:14:34.521Z,3.87
2018-04-02T12:17:04.291Z,3.17
2018-04-02T12:22:06.677Z,5.83
2018-04-02T12:24:35.572Z,4.30
2018-04-02T12:27:04.414Z,3.33
2018-04-02T12:29:33.285Z,4.20
2018-04-02T12:32:02.565Z,5.50
2018-04-02T12:34:31.417Z,5.63
2018-04-02T12:37:00.336Z,4.67
2018-04-02T12:39:31.203Z,4.13
2018-04-02T12:42:00.069Z,2.63
2018-04-02T12:44:29.955Z,4.93
2018-04-02T12:46:59.716Z,4.93
2018-04-02T12:49:29.015Z,5.07
2018-04-02T12:51:57.890Z,3.93
2018-04-02T12:54:26.745Z,3.97
2018-04-02T12:56:55.613Z,22.73
2018-04-02T12:59:24.479Z,5.20
2018-04-02T13:01:53.319Z,4.00
2018-04-02T13:04:22.149Z,3.77
2018-04-02T13:06:51.034Z,3.40
2018-04-02T13:09:19.931Z,5.40
2018-04-02T13:11:49.597Z,5.63
2018-04-02T13:14:18.451Z,2.93
2018-04-02T13:16:47.301Z,4.20
2018-04-02T13:19:16.193Z,4.77
2018-04-02T13:21:45.055Z,6.30
2018-04-02T13:24:13.936Z,6.03
2018-04-02T13:26:43.493Z,4.50
2018-04-02T13:29:13.768Z,5.77
2018-04-02T13:31:43.328Z,5.13
2018-04-02T13:34:12.184Z,4.70
2018-04-02T13:36:42.645Z,5.20
2018-04-02T13:39:11.520Z,4.70
2018-04-02T13:41:40.752Z,6.13
2018-04-02T13:44:09.634Z,4.57
2018-04-02T13:46:38.505Z,5.77
2018-04-02T13:49:07.348Z,8.87
2018-04-02T13:51:36.198Z,6.17
2018-04-02T13:54:05.092Z,5.50
2018-04-02T13:56:33.987Z,6.00
2018-04-02T13:59:02.862Z,5.33
2018-04-02T14:01:31.744Z,3.53
2018-04-02T14:04:00.595Z,3.80
2018-04-02T14:06:30.325Z,4.57
2018-04-02T14:08:59.234Z,3.37
2018-04-02T14:11:31.896Z,3.13
2018-04-02T14:14:00.791Z,5.00
2018-04-02T14:16:30.398Z,4.40
2018-04-02T14:18:59.244Z,5.57
2018-04-02T14:21:28.130Z,5.50
2018-04-02T14:23:57.743Z,3.77
2018-04-02T14:26:26.602Z,4.83
2018-04-02T14:28:55.501Z,3.67
2018-04-02T14:31:24.341Z,4.53
2018-04-02T14:33:53.181Z,5.00
2018-04-02T14:36:22.092Z,2.77
2018-04-02T14:38:51.299Z,3.87
2018-04-02T14:41:20.112Z,3.40
2018-04-02T14:43:49.945Z,3.47
2018-04-02T14:46:18.781Z,4.00
2018-04-02T14:48:49.237Z,4.20
2018-04-02T14:51:18.110Z,3.53
2018-04-02T14:53:46.948Z,3.03
2018-04-02T14:56:15.922Z,2.53
2018-04-02T14:58:44.846Z,2.00
2018-04-02T15:01:13.692Z,3.70
2018-04-02T15:03:43.178Z,3.07
2018-04-02T15:06:12.061Z,3.70
2018-04-02T15:08:40.934Z,2.73
2018-04-02T15:11:10.632Z,3.57
2018-04-02T15:13:39.523Z,3.47
2018-04-02T15:16:09.094Z,2.90
2018-04-02T15:18:38.049Z,7.20
2018-04-02T15:21:06.898Z,8.37
2018-04-02T15:23:35.764Z,5.40
2018-04-02T15:26:04.741Z,2.53
2018-04-02T15:28:34.493Z,3.13
2018-04-02T15:31:03.409Z,4.43
2018-04-02T15:33:33.565Z,3.27
2018-04-02T15:36:02.876Z,3.33
2018-04-02T15:38:32.392Z,3.63
2018-04-02T15:41:02.140Z,5.10
2018-04-02T15:43:31.084Z,4.27
2018-04-02T15:46:00.405Z,3.67
2018-04-02T15:48:29.337Z,2.83
2018-04-02T15:50:58.229Z,3.00
2018-04-02T15:53:27.048Z,4.27
2018-04-02T15:55:56.489Z,4.47
2018-04-02T15:58:25.397Z,5.10
2018-04-02T16:00:54.529Z,2.33
2018-04-02T16:03:23.425Z,2.87
2018-04-02T16:05:52.277Z,4.00
2018-04-02T16:08:21.887Z,3.47
2018-04-02T16:10:50.748Z,4.43
2018-04-02T16:13:19.588Z,3.57
2018-04-02T16:15:48.694Z,2.57
2018-04-02T16:18:18.836Z,5.50
2018-04-02T16:31:51.250Z,4.30
2018-04-02T16:34:20.789Z,4.37
2018-04-02T16:36:49.664Z,4.27
2018-04-02T16:39:18.883Z,3.17
2018-04-02T16:41:49.721Z,3.87
2018-04-02T16:44:18.599Z,7.80
2018-04-02T16:46:47.536Z,8.73
2018-04-02T16:49:17.946Z,7.27
2018-04-02T16:51:48.848Z,5.10
2018-04-02T16:54:18.689Z,3.63
2018-04-02T16:56:47.651Z,5.73
2018-04-02T16:59:16.509Z,4.97
2018-04-02T17:01:45.842Z,4.47
2018-04-02T17:04:14.740Z,5.23
2018-04-02T17:06:44.130Z,5.50
2018-04-02T17:09:12.971Z,5.33
2018-04-02T17:11:42.863Z,6.73
2018-04-02T17:14:12.093Z,4.33
2018-04-02T17:16:42.142Z,7.67
2018-04-02T17:19:11.000Z,4.30
2018-04-02T17:21:39.853Z,7.77
2018-04-02T17:24:09.772Z,5.40
2018-04-02T17:26:38.659Z,7.53
2018-04-02T17:29:07.510Z,8.50
2018-04-02T17:31:36.408Z,6.23
2018-04-02T17:34:05.280Z,4.73
2018-04-02T17:36:34.128Z,4.20
2018-04-02T17:39:07.120Z,8.57
2018-04-02T17:41:37.478Z,7.67
2018-04-02T17:44:06.330Z,5.40
2018-04-02T17:46:35.330Z,10.30
2018-04-02T17:49:04.194Z,9.80
2018-04-02T17:51:33.058Z,9.23
2018-04-02T17:54:02.643Z,8.07
2018-04-02T17:56:31.588Z,7.17
2018-04-02T17:59:01.704Z,6.60
2018-04-02T18:01:35.341Z,7.43
2018-04-02T18:04:05.422Z,9.13
2018-04-02T18:06:34.845Z,8.63
2018-04-02T18:09:11.193Z,8.70
2018-04-02T18:11:40.043Z,9.13
2018-04-02T18:14:10.023Z,9.27
2018-04-02T18:16:39.312Z,8.60
2018-04-02T18:19:09.763Z,8.07
2018-04-02T18:21:39.888Z,6.57
2018-04-02T18:24:11.051Z,15.50
2018-04-02T18:26:40.653Z,6.53
2018-04-02T18:29:10.609Z,7.00
2018-04-02T18:34:19.315Z,5.70
2018-04-02T18:36:50.867Z,5.40
2018-04-02T18:39:23.545Z,5.10
2018-04-02T18:42:06.240Z,6.03
2018-04-02T18:44:37.983Z,7.33
2018-04-02T18:49:40.831Z,8.67
2018-04-02T18:52:10.741Z,7.23
2018-04-02T18:54:52.007Z,6.40
2018-04-02T18:57:22.782Z,6.80
2018-04-02T19:02:33.502Z,7.07
2018-04-02T19:05:03.196Z,9.27
2018-04-02T19:07:43.391Z,7.93
2018-04-02T19:10:13.154Z,6.70
2018-04-02T19:12:42.806Z,10.10
2018-04-02T19:15:12.528Z,6.50
2018-04-02T19:17:41.738Z,8.10
2018-04-02T19:20:10.832Z,8.47
2018-04-02T19:22:39.926Z,7.60
2018-04-02T19:25:10.458Z,5.97
2018-04-02T19:27:39.604Z,7.80
2018-04-02T19:30:08.436Z,7.33
2018-04-02T19:32:37.662Z,7.47
2018-04-02T19:35:06.542Z,7.13
2018-04-02T19:37:35.415Z,4.90
2018-04-02T19:40:04.318Z,6.10
2018-04-02T19:42:34.451Z,6.20
2018-04-02T19:45:03.656Z,8.33
2018-04-02T19:47:32.761Z,8.03
2018-04-02T19:50:02.398Z,9.00
2018-04-02T19:52:31.272Z,7.37
2018-04-02T19:55:00.184Z,6.23
2018-04-02T19:57:29.713Z,5.33
2018-04-02T19:59:58.554Z,6.63
2018-04-02T20:02:27.456Z,7.50
2018-04-02T20:04:56.318Z,8.00
2018-04-02T20:07:25.567Z,7.57
2018-04-02T20:09:54.464Z,10.07
2018-04-02T20:12:23.338Z,8.20
2018-04-02T20:14:52.233Z,11.50
2018-04-02T20:17:21.775Z,7.50
2018-04-02T20:19:50.613Z,6.07
2018-04-02T20:22:19.706Z,7.50
2018-04-02T20:24:49.117Z,7.50
2018-04-02T20:27:17.974Z,7.77
2018-04-02T20:29:46.854Z,7.17
2018-04-02T20:32:15.723Z,7.40
2018-04-02T20:34:44.564Z,7.17
2018-04-02T20:37:14.144Z,5.23
2018-04-02T20:39:43.009Z,7.33
2018-04-02T20:42:11.876Z,6.93
2018-04-02T20:44:40.731Z,3.97
2018-04-02T20:47:09.654Z,6.93
2018-04-02T20:49:38.498Z,6.20
2018-04-02T20:52:07.447Z,6.93
2018-04-02T20:54:36.597Z,7.73
2018-04-02T20:57:05.457Z,5.67
2018-04-02T20:59:34.324Z,4.37
2018-04-02T21:02:03.240Z,5.27
2018-04-02T21:04:32.072Z,4.23
2018-04-02T21:07:00.909Z,5.13
2018-04-02T21:09:29.894Z,3.67
2018-04-02T21:11:59.552Z,6.03
2018-04-02T21:14:28.926Z,4.37
2018-04-02T21:16:57.772Z,3.23
2018-04-02T21:19:26.652Z,4.33
2018-04-02T21:21:56.184Z,3.07
2018-04-02T21:24:25.058Z,5.10
2018-04-02T21:26:53.929Z,5.03
2018-04-02T21:29:23.732Z,4.47
2018-04-02T21:31:52.896Z,4.07
2018-04-02T21:34:21.726Z,3.70
2018-04-02T21:36:50.565Z,6.53
2018-04-02T21:39:19.442Z,3.23
2018-04-02T21:41:48.306Z,3.00
2018-04-02T21:44:18.247Z,3.53
2018-04-02T21:46:47.110Z,4.83
2018-04-02T21:49:15.942Z,5.00
2018-04-02T21:51:44.781Z,5.07
2018-04-02T21:54:13.650Z,3.00
2018-04-02T21:56:43.505Z,4.07
2018-04-02T21:59:12.347Z,4.00
2018-04-02T22:01:41.237Z,6.10
2018-04-02T22:04:10.117Z,4.10
2018-04-02T22:06:44.935Z,5.07
2018-04-02T22:09:13.768Z,5.57
2018-04-02T22:11:43.481Z,3.90
2018-04-02T22:14:12.355Z,4.30
2018-04-02T22:16:41.227Z,6.47
2018-04-02T22:19:10.143Z,3.70
2018-04-02T22:21:39.005Z,4.77
2018-04-02T22:24:07.869Z,4.63
2018-04-02T22:26:36.911Z,4.33
2018-04-02T22:29:05.783Z,4.13
2018-04-02T22:31:34.955Z,5.87
2018-04-02T22:34:03.839Z,6.53
2018-04-02T22:36:32.719Z,5.20
2018-04-02T22:39:01.569Z,4.53
2018-04-02T22:41:30.416Z,5.77
2018-04-02T22:43:59.288Z,5.77
2018-04-02T22:46:28.575Z,4.87
2018-04-02T22:48:57.460Z,6.23
2018-04-02T22:51:26.342Z,6.30
2018-04-02T22:53:55.210Z,5.07
2018-04-02T22:56:24.067Z,6.63
2018-04-02T22:58:52.944Z,5.43
2018-04-02T23:01:21.800Z,4.90
2018-04-02T23:03:50.642Z,6.63
2018-04-02T23:06:19.503Z,8.97
2018-04-02T23:08:48.444Z,6.00
2018-04-02T23:11:17.974Z,5.43
2018-04-02T23:13:47.676Z,7.07
2018-04-02T23:16:16.501Z,6.50
2018-04-02T23:18:45.335Z,7.20
2018-04-02T23:21:14.216Z,6.37
2018-04-02T23:23:43.056Z,6.00
2018-04-02T23:26:11.906Z,6.40
2018-04-02T23:28:40.763Z,8.20
2018-04-02T23:31:10.595Z,7.93
2018-04-02T23:33:39.450Z,6.77
2018-04-02T23:36:08.345Z,7.07
2018-04-02T23:38:37.204Z,5.50
2018-04-02T23:41:06.603Z,6.23
2018-04-02T23:43:35.471Z,7.50
2018-04-02T23:46:04.316Z,8.00
2018-04-02T23:48:33.156Z,7.00
2018-04-02T23:51:03.847Z,7.23
2018-04-02T23:53:32.700Z,7.60
2018-04-02T23:56:02.258Z,7.50
2018-04-02T23:58:31.126Z,6.43
